This is the latest recevied weather packets stored in our database for station/object KL7LK-13. If no packets are shown the sender has not sent any weather packets the latest 10 day(s).
| Time | Temp. | Humidity | Pressure | Rain* | Wind** | Luminosity | Snow |
|---|---|---|---|---|---|---|---|
| 1777190559 | 4.44° C | 71% | 1036.5 hPa | - | - | 0 W/m² | - |
| 1777186965 | 4.44° C | 72% | 1037 hPa | - | - | 0 W/m² | - |
| 1777184609 | 5° C | 72% | 1037.2 hPa | - | - | 0 W/m² | - |
| 1777175560 | 8.89° C | 56% | 1038.2 hPa | - | - | 45 W/m² | - |
| 1777174320 | 9.44° C | 55% | 1038.5 hPa | - | - | 63 W/m² | - |
| 1777171965 | 10° C | 53% | 1038.8 hPa | - | - | 60 W/m² | - |
| 1777170726 | 10° C | 51% | 1038.9 hPa | - | - | 76 W/m² | - |
| 1777166654 | 11.11° C | 52% | 1039.5 hPa | - | - | 178 W/m² | - |
| 1777166034 | 10.56° C | 52% | 1039.7 hPa | - | - | 191 W/m² | - |
| 1777162460 | 10.56° C | 53% | 1040 hPa | - | - | 171 W/m² | - |
| 1777159941 | 11.11° C | 53% | 1040.4 hPa | - | - | 210 W/m² | - |
| 1777158082 | 10.56° C | 55% | 1040.6 hPa | - | - | 192 W/m² | - |
| 1777155108 | 10° C | 57% | 1040.9 hPa | - | - | 384 W/m² | - |
| 1777141301 | 7.22° C | 69% | 1041.1 hPa | - | - | 245 W/m² | - |
| 1777138947 | 5.56° C | 75% | 1040.7 hPa | - | - | 190 W/m² | - |
| 1777135992 | 5° C | 79% | 1040.2 hPa | - | - | 92 W/m² | - |
| 1777135373 | 4.44° C | 81% | 1040.1 hPa | - | - | 69 W/m² | - |
| 1777134733 | 4.44° C | 81% | 1040 hPa | - | - | 51 W/m² | - |
| 1777130015 | 3.89° C | 85% | 1039.5 hPa | - | - | 23 W/m² | - |
| 1777127515 | 3.89° C | 85% | 1039.3 hPa | - | - | 7 W/m² | - |
| 1777126896 | 3.33° C | 87% | 1039.1 hPa | - | - | 6 W/m² | - |
| 1777122187 | 2.22° C | 91% | 1038.2 hPa | - | - | 0 W/m² | - |
| 1777121567 | 2.22° C | 91% | 1038.2 hPa | - | - | 0 W/m² | - |
| 1777111406 | 5° C | 84% | 1037 hPa | - | - | 0 W/m² | - |
| 1777108929 | 5.56° C | 75% | 1036.5 hPa | - | - | 0 W/m² | - |
* Rain since midnight (hover to see other rain measurements)
** Current wind speed in m/s (hover to see current wind gust speed)